Kelley, IA (50134)

5:54 AM CDT on September 03, 2015 (GMT -0500)
Benton Street | | Change Station
CLOSE
Current Station
Personal Weather Station
Location: Slater, IA
Elevation: 1001 ft
Nearby Weather Stations

Elev 1001 ft 41.88 °N, 93.68 °W | Updated 7 seconds ago

Clear
Clear
70.0 °F
Feels Like 70.0 °F
N
0.0
Wind Variable Wind from NE
Gusts 0.0 mph

Today
High -- | Low -- °F
--% Chance of Precip.
Yesterday
High -- | Low -- °F
Precip. -- in
6:42 AM 7:45 PM
Waning Gibbous, 71% visible
Pressure 29.87 in
Visibility 3.0 miles
Clouds Clear
Dew Point 70 °F
Humidity 100%
Rainfall 0.00 in
Snow Depth Not available.
UV 0 out of 12
Pollen 11.10 out of 12
Air Quality Not available.
Flu Activity Not available.
METAR KAMW 030953Z AUTO 16004KT 3SM BR CLR 19/19 A2990 RMK AO2 SLP114 T01890189
Pressure 29.87 in
Visibility 3.0 miles
Clouds Clear
Dew Point 70 °F
Humidity 100%
Rainfall 0.00 in
Snow Depth Not available.
UV 0 out of 12
Pollen 11.10 out of 12
Air Quality Not available.
Flu Activity Not available.
METAR KAMW 030953Z AUTO 16004KT 3SM BR CLR 19/19 A2990 RMK AO2 SLP114 T01890189

10-Day Weather Forecast

×

Almanac

Astronomy

Sep. 03, 2015 Rise Set
Actual Time
Civil Twilight
Nautical Twilight
Astronomical Twilight
Moon
Length of Visible Light
Length of Day
Tomorrow will be .
, % of the Moon is Illuminated

Today's Extremes

State Highs State Lows

Community

WunderPhotos

Upload Photos

1,851,933 photos uploaded!

WunderBlogs® & News

Nearby

Air Quality

  Air Quality AQ Index Pollutant
Not available.

Snow Depth

Station Depth Elevation

Earthquake Activity

City Distance Mag. Time & Date
Minimum magnitude displayed is 2.5.

Coastal Water Temperatures

Place Temperature

Stations

Nearby Weather Stations

Station Location Temp. Windchill Dew Point Humidity Wind Precip. Elev Updated Type